Terminal Aerodrome Forecast
Issued by NWS Sioux Falls, SD

Home | Current Version | Previous Version | Graphics & Text | Print | Product List | Glossary On
Versions: 1 2 3 4 5 6 7 8 9 10 11 12 13 14 15 16
543
FTUS43 KFSD 231051 AAA
TAFFSD
TAF AMD
KFSD 231051Z 2311/2406 32010KT P6SM BKN025
     FM231300 32011KT P6SM BKN015
     FM231700 35013G18KT P6SM -SHRA OVC025
     FM232000 35014G20KT P6SM OVC030
     FM232200 35014G19KT P6SM OVC040
     FM240200 35009KT P6SM BKN040=

USA.gov is the U.S. government's official web portal to all federal, state and local government web resources and services.